Time;durP1;ratioP1;P1;durP2;ratioP2;P2;SDS_P1;SDS_P2;PMS_P1;PMS_P2;Temp;Humidity;BMP_temperature;BMP_pressure;BME280_temperature;BME280_humidity;BME280_pressure;Samples;Min_cycle;Max_cycle;Signal;HPM_P1;HPM_P2
2021/11/22 00:02:13;;;;;;;;;;;;;;;3.69;100.00;101935.16;5054152;28;19931;-51
2021/11/22 00:04:40;;;;;;;;;;;;;;;3.68;100.00;101943.84;5053529;28;19955;-50
2021/11/22 00:07:06;;;;;;;;;;;;;;;3.77;100.00;101945.44;5052046;28;20026;-52
2021/11/22 00:09:33;;;;;;;;;;;;;;;3.70;100.00;101947.28;5051785;28;19929;-52
2021/11/22 00:12:00;;;;;;;;;;;;;;;3.69;100.00;101951.59;5052694;28;19947;-52
2021/11/22 00:14:27;;;;;;;;;;;;;;;3.67;100.00;101947.34;5050939;28;19925;-50
2021/11/22 00:16:53;;;;;;;;;;;;;;;3.71;100.00;101947.25;5053899;28;20400;-51
2021/11/22 00:19:20;;;;;;;;;;;;;;;3.68;100.00;101956.84;5054799;28;19928;-52
2021/11/22 00:21:47;;;;;;;;;;;;;;;3.66;100.00;101946.47;5054979;28;19925;-47
2021/11/22 00:24:13;;;;;;;;;;;;;;;3.66;100.00;101956.03;5054957;28;19928;-56
2021/11/22 00:26:40;;;;;;;;;;;;;;;3.64;100.00;101957.78;5053421;28;20366;-52
2021/11/22 00:29:07;;;;;;;;;;;;;;;3.69;100.00;101956.81;5052082;28;20399;-51
2021/11/22 00:31:33;;;;;;;;;;;;;;;3.73;100.00;101965.44;5049703;28;20387;-51
2021/11/22 00:34:00;;;;;;;;;;;;;;;3.66;100.00;101959.47;5054852;28;19924;-53
2021/11/22 00:36:27;;;;;;;;;;;;;;;3.67;100.00;101963.81;5053559;28;19929;-54
2021/11/22 00:38:54;;;;;;;;;;;;;;;3.70;100.00;101968.94;5051369;28;20002;-54
2021/11/22 00:41:20;;;;;;;;;;;;;;;3.60;100.00;101982.16;5052939;28;19929;-54
2021/11/22 00:43:47;;;;;;;;;;;;;;;3.64;100.00;101989.88;5054275;28;19925;-55
2021/11/22 00:46:14;;;;;;;;;;;;;;;3.59;100.00;101990.88;5050974;28;19931;-51
2021/11/22 00:48:41;;;;;;;;;;;;;;;3.54;100.00;101998.72;5051399;28;19964;-52
2021/11/22 00:51:07;;;;;;;;;;;;;;;3.54;100.00;101993.53;5051438;28;19925;-55
2021/11/22 00:53:34;;;;;;;;;;;;;;;3.52;100.00;102005.72;5050987;28;19925;-54
2021/11/22 00:56:00;;;;;;;;;;;;;;;3.52;100.00;102003.97;5051388;28;19947;-53
2021/11/22 00:58:27;;;;;;;;;;;;;;;3.53;100.00;102013.50;5051614;28;20407;-54
2021/11/22 01:00:54;;;;;;;;;;;;;;;3.51;100.00;102017.84;5049432;28;19932;-54
2021/11/22 01:03:21;;;;;;;;;;;;;;;3.53;100.00;102017.81;5051433;28;19929;-54
2021/11/22 01:05:48;;;;;;;;;;;;;;;3.46;100.00;102022.25;5051281;28;19932;-56
2021/11/22 01:08:14;;;;;;;;;;;;;;;3.47;100.00;102025.72;5049465;28;19979;-55
2021/11/22 01:10:41;;;;;;;;;;;;;;;3.45;100.00;102027.50;5050232;28;19929;-53
2021/11/22 01:13:08;;;;;;;;;;;;;;;3.46;100.00;102031.81;5050703;28;20388;-53
2021/11/22 01:15:35;;;;;;;;;;;;;;;3.48;100.00;102040.47;5047889;28;19925;-51
2021/11/22 01:18:02;;;;;;;;;;;;;;;3.46;100.00;102043.06;5051087;28;19935;-53
2021/11/22 01:20:29;;;;;;;;;;;;;;;3.50;100.00;102043.88;5051872;28;19933;-52
2021/11/22 01:22:56;;;;;;;;;;;;;;;3.49;100.00;102049.97;5050924;28;19925;-55
2021/11/22 01:25:23;;;;;;;;;;;;;;;3.48;100.00;102051.72;5049622;28;19942;-54
2021/11/22 01:27:51;;;;;;;;;;;;;;;3.49;100.00;102052.56;5052818;28;19968;-55
2021/11/22 01:30:18;;;;;;;;;;;;;;;3.45;100.00;102051.78;5064116;28;19925;-50
2021/11/22 01:32:45;;;;;;;;;;;;;;;3.45;100.00;102064.78;5065904;28;20419;-54
2021/11/22 01:35:12;;;;;;;;;;;;;;;3.42;100.00;102061.34;5050663;28;19925;-54
2021/11/22 01:37:39;;;;;;;;;;;;;;;3.45;100.00;102069.97;5050367;28;19929;-53
2021/11/22 01:40:06;;;;;;;;;;;;;;;3.43;100.00;102076.09;5052363;28;19924;-55
2021/11/22 01:42:33;;;;;;;;;;;;;;;3.42;100.00;102072.59;5050223;28;19924;-54
2021/11/22 01:45:00;;;;;;;;;;;;;;;3.44;100.00;102077.81;5049105;28;19936;-54
2021/11/22 01:47:26;;;;;;;;;;;;;;;3.45;100.00;102076.91;5049939;28;19929;-52
2021/11/22 01:49:53;;;;;;;;;;;;;;;3.40;100.00;102073.53;5049413;28;19932;-54
2021/11/22 01:52:20;;;;;;;;;;;;;;;3.40;100.00;102094.34;5050779;28;19951;-53
2021/11/22 01:54:46;;;;;;;;;;;;;;;3.40;100.00;102090.00;5051755;28;19925;-50
2021/11/22 01:57:13;;;;;;;;;;;;;;;3.45;100.00;102087.31;5052673;28;19925;-53
2021/11/22 01:59:40;;;;;;;;;;;;;;;3.47;100.00;102095.97;5051839;28;19932;-55
2021/11/22 02:02:09;;;;;;;;;;;;;;;3.47;100.00;102088.16;5048660;28;19978;-53
2021/11/22 02:04:36;;;;;;;;;;;;;;;3.39;100.00;102101.28;5051155;28;19925;-51
2021/11/22 02:07:02;;;;;;;;;;;;;;;3.35;100.00;102097.88;5050842;28;19925;-54
2021/11/22 02:09:30;;;;;;;;;;;;;;;3.36;100.00;102098.72;5049932;28;20370;-53
2021/11/22 02:11:56;;;;;;;;;;;;;;;3.35;100.00;102100.47;5050314;28;19967;-55
2021/11/22 02:14:23;;;;;;;;;;;;;;;3.37;100.00;102105.66;5064360;28;20465;-54
2021/11/22 02:16:50;;;;;;;;;;;;;;;3.35;100.00;102107.41;5049527;28;19948;-53
2021/11/22 02:19:16;;;;;;;;;;;;;;;3.33;100.00;102109.19;5050095;28;19925;-51
2021/11/22 02:21:43;;;;;;;;;;;;;;;3.31;100.00;102113.53;5049624;28;20363;-53
2021/11/22 02:24:10;;;;;;;;;;;;;;;3.27;100.00;102114.47;5050042;28;20012;-54
2021/11/22 02:26:37;;;;;;;;;;;;;;;3.30;100.00;102123.09;5049516;28;19932;-52
2021/11/22 02:29:04;;;;;;;;;;;;;;;3.42;100.00;102121.19;5052198;28;19935;-52
2021/11/22 02:31:31;;;;;;;;;;;;;;;3.30;100.00;102130.88;5053084;28;19925;-53
2021/11/22 02:33:57;;;;;;;;;;;;;;;3.28;100.00;102126.59;5054449;28;19931;-52
2021/11/22 02:36:24;;;;;;;;;;;;;;;3.30;100.00;102130.00;5053288;28;20296;-54
2021/11/22 02:38:51;;;;;;;;;;;;;;;3.32;100.00;102136.06;5053551;28;19928;-55
2021/11/22 02:41:18;;;;;;;;;;;;;;;3.25;100.00;102134.44;5053825;28;19925;-56
2021/11/22 02:43:45;;;;;;;;;;;;;;;3.23;100.00;102142.22;5052771;28;20391;-55
2021/11/22 02:46:12;;;;;;;;;;;;;;;3.19;100.00;102151.84;5070072;28;20338;-55
2021/11/22 02:48:39;;;;;;;;;;;;;;;3.21;100.00;102147.47;5055410;28;19929;-53
2021/11/22 02:51:06;;;;;;;;;;;;;;;3.21;100.00;102159.63;5056429;28;19925;-51
2021/11/22 02:53:33;;;;;;;;;;;;;;;3.19;100.00;102143.16;5056361;28;20288;-54
2021/11/22 02:56:01;;;;;;;;;;;;;;;3.25;100.00;102157.84;5071148;28;19952;-54
2021/11/22 02:58:27;;;;;;;;;;;;;;;3.21;100.00;102160.47;5053812;28;20341;-54
2021/11/22 03:00:54;;;;;;;;;;;;;;;3.18;100.00;102167.47;5051376;28;19925;-54
2021/11/22 03:03:25;;;;;;;;;;;;;;;3.15;100.00;102165.75;5053961;28;19924;-54
2021/11/22 03:06:00;;;;;;;;;;;;;;;3.14;100.00;102171.81;5053497;28;19924;-54
2021/11/22 03:08:26;;;;;;;;;;;;;;;3.12;100.00;102171.00;5051489;28;20015;-55
2021/11/22 03:10:53;;;;;;;;;;;;;;;3.10;100.00;102175.34;5051696;28;19968;-52
2021/11/22 03:13:20;;;;;;;;;;;;;;;3.07;100.00;102180.59;5035814;28;20279;-49
2021/11/22 03:15:46;;;;;;;;;;;;;;;3.11;100.00;102178.78;5052635;28;19931;-52
2021/11/22 03:18:13;;;;;;;;;;;;;;;3.06;100.00;102184.06;5054814;28;19960;-50
2021/11/22 03:20:40;;;;;;;;;;;;;;;3.07;100.00;102185.78;5053207;28;19932;-50
2021/11/22 03:23:06;;;;;;;;;;;;;;;3.04;100.00;102191.88;5051449;28;19928;-51
2021/11/22 03:25:33;;;;;;;;;;;;;;;3.04;100.00;102186.69;5052863;28;19932;-48
2021/11/22 03:28:00;;;;;;;;;;;;;;;3.04;100.00;102186.69;5052439;28;19932;-52
2021/11/22 03:30:27;;;;;;;;;;;;;;;3.01;100.00;102188.44;5066587;28;20018;-52
2021/11/22 03:32:53;;;;;;;;;;;;;;;2.98;100.00;102196.28;5052964;28;19932;-51
2021/11/22 03:35:20;;;;;;;;;;;;;;;2.97;100.00;102200.66;5052845;28;19925;-51
2021/11/22 03:37:47;;;;;;;;;;;;;;;2.98;100.00;102206.69;5034472;28;19925;-49
2021/11/22 03:40:14;;;;;;;;;;;;;;;2.97;100.00;102205.84;5053845;28;19963;-49
2021/11/22 03:42:52;;;;;;;;;;;;;;;2.98;100.00;102209.28;5055479;28;19968;-52
2021/11/22 03:45:19;;;;;;;;;;;;;;;2.95;100.00;102211.94;5055586;28;19926;-49
2021/11/22 03:47:45;;;;;;;;;;;;;;;2.92;100.00;102211.94;5052400;28;19925;-49
2021/11/22 03:50:12;;;;;;;;;;;;;;;2.95;100.00;102217.13;5068309;28;19925;-48
2021/11/22 03:52:38;;;;;;;;;;;;;;;2.88;100.00;102221.53;5051723;28;20397;-48
2021/11/22 03:55:05;;;;;;;;;;;;;;;2.93;100.00;102213.66;5051364;28;19933;-51
2021/11/22 03:57:32;;;;;;;;;;;;;;;2.87;100.00;102231.03;5054009;28;19925;-52
2021/11/22 03:59:59;;;;;;;;;;;;;;;2.80;100.00;102228.56;5055259;28;19925;-49
2021/11/22 04:02:26;;;;;;;;;;;;;;;2.80;100.00;102233.75;5054057;28;19964;-50
2021/11/22 04:04:53;;;;;;;;;;;;;;;2.78;100.00;102241.56;5054938;28;19925;-55
2021/11/22 04:07:20;;;;;;;;;;;;;;;2.74;100.00;102250.25;5054816;28;19924;-51
2021/11/22 04:09:46;;;;;;;;;;;;;;;2.79;100.00;102251.06;5070424;28;19974;-53
2021/11/22 04:12:13;;;;;;;;;;;;;;;2.78;100.00;102259.75;5052970;28;19928;-47
2021/11/22 04:14:40;;;;;;;;;;;;;;;2.77;100.00;102254.53;5065827;28;19932;-51
2021/11/22 04:17:06;;;;;;;;;;;;;;;2.79;100.00;102263.19;5052058;28;19929;-49
2021/11/22 04:19:34;;;;;;;;;;;;;;;2.77;100.00;102260.63;5067468;28;20295;-52
2021/11/22 04:22:01;;;;;;;;;;;;;;;2.74;100.00;102267.56;5053339;28;19932;-53
2021/11/22 04:24:27;;;;;;;;;;;;;;;2.74;100.00;102265.84;5054715;28;20528;-53
2021/11/22 04:26:54;;;;;;;;;;;;;;;2.76;100.00;102265.84;5052756;28;19928;-53
2021/11/22 04:29:21;;;;;;;;;;;;;;;2.72;100.00;102267.59;5050864;28;20044;-50
2021/11/22 04:31:47;;;;;;;;;;;;;;;2.70;100.00;102270.22;5051205;28;19925;-53
2021/11/22 04:34:14;;;;;;;;;;;;;;;2.69;100.00;102273.69;5067109;28;20413;-52
2021/11/22 04:36:41;;;;;;;;;;;;;;;2.67;100.00;102279.75;5050271;28;19933;-49
2021/11/22 04:39:08;;;;;;;;;;;;;;;2.66;100.00;102286.69;5051992;28;20338;-50
2021/11/22 04:41:34;;;;;;;;;;;;;;;2.67;100.00;102293.63;5054636;28;19925;-52
2021/11/22 04:44:02;;;;;;;;;;;;;;;2.64;100.00;102283.25;5053145;28;19947;-53
2021/11/22 04:46:30;;;;;;;;;;;;;;;2.63;100.00;102293.66;5053788;28;19931;-50
2021/11/22 04:48:56;;;;;;;;;;;;;;;2.68;100.00;102291.88;5052111;28;19932;-48
2021/11/22 04:51:24;;;;;;;;;;;;;;;2.66;100.00;102299.69;5050075;28;19931;-49
2021/11/22 04:53:50;;;;;;;;;;;;;;;2.60;100.00;102307.53;5066163;28;19928;-52
2021/11/22 04:56:17;;;;;;;;;;;;;;;2.54;100.00;102316.22;5051580;28;19925;-53
2021/11/22 04:58:44;;;;;;;;;;;;;;;2.54;100.00;102315.38;5050517;28;19928;-54
2021/11/22 05:01:10;;;;;;;;;;;;;;;2.56;100.00;102324.00;5050808;28;19940;-50
2021/11/22 05:03:37;;;;;;;;;;;;;;;2.54;100.00;102325.78;5050866;28;20027;-51
2021/11/22 05:06:04;;;;;;;;;;;;;;;2.50;100.00;102319.72;5051286;28;19924;-46
2021/11/22 05:08:31;;;;;;;;;;;;;;;2.49;100.00;102330.13;5050404;28;19994;-55
2021/11/22 05:10:57;;;;;;;;;;;;;;;2.48;100.00;102331.00;5050226;28;20303;-52
2021/11/22 05:13:25;;;;;;;;;;;;;;;2.50;100.00;102334.47;5050990;28;19925;-55
2021/11/22 05:15:52;;;;;;;;;;;;;;;2.48;100.00;102336.19;5049037;28;19932;-57
2021/11/22 05:18:19;;;;;;;;;;;;;;;2.49;100.00;102336.19;5051357;28;19932;-52
2021/11/22 05:20:46;;;;;;;;;;;;;;;2.46;100.00;102343.16;5050851;28;19925;-51
2021/11/22 05:23:13;;;;;;;;;;;;;;;2.45;100.00;102344.00;5050564;28;19951;-54
2021/11/22 05:25:40;;;;;;;;;;;;;;;2.43;100.00;102348.38;5066039;28;19929;-56
2021/11/22 05:28:07;;;;;;;;;;;;;;;2.43;100.00;102351.81;5052375;28;19928;-50
2021/11/22 05:30:34;;;;;;;;;;;;;;;2.43;100.00;102354.41;5068853;28;19924;-51
2021/11/22 05:33:01;;;;;;;;;;;;;;;2.40;100.00;102357.03;5068677;28;19925;-53
2021/11/22 05:35:27;;;;;;;;;;;;;;;2.46;100.00;102361.34;5068627;28;19924;-52
2021/11/22 05:37:54;;;;;;;;;;;;;;;2.43;100.00;102370.00;5050293;28;20335;-49
2021/11/22 05:40:21;;;;;;;;;;;;;;;2.44;100.00;102378.63;5049272;28;19928;-48
2021/11/22 05:42:48;;;;;;;;;;;;;;;2.44;100.00;102381.25;5050290;28;19932;-52
2021/11/22 05:45:15;;;;;;;;;;;;;;;2.39;100.00;102381.28;5048741;28;19931;-50
2021/11/22 05:47:42;;;;;;;;;;;;;;;2.42;100.00;102383.84;5051912;28;20343;-52
2021/11/22 05:50:09;;;;;;;;;;;;;;;2.41;100.00;102387.31;5053222;28;19947;-51
2021/11/22 05:52:36;;;;;;;;;;;;;;;2.43;100.00;102385.59;5053054;28;19924;-52
2021/11/22 05:55:06;;;;;;;;;;;;;;;2.42;100.00;102383.00;5064878;28;19968;-52
2021/11/22 05:57:32;;;;;;;;;;;;;;;2.46;100.00;102395.09;5049064;28;20416;-50
2021/11/22 05:59:59;;;;;;;;;;;;;;;2.47;100.00;102397.69;5050462;28;19925;-48
2021/11/22 06:02:26;;;;;;;;;;;;;;;2.42;100.00;102404.63;5051998;28;19932;-51
2021/11/22 06:04:52;;;;;;;;;;;;;;;2.40;100.00;102405.50;5068190;28;20023;-52
2021/11/22 06:07:19;;;;;;;;;;;;;;;2.43;100.00;102411.56;5050369;28;19925;-53
2021/11/22 06:09:46;;;;;;;;;;;;;;;2.40;100.00;102416.78;5049503;28;19925;-53
2021/11/22 06:12:12;;;;;;;;;;;;;;;2.36;100.00;102410.72;5050526;28;19932;-51
2021/11/22 06:14:39;;;;;;;;;;;;;;;2.35;100.00;102421.13;5047553;28;19924;-50
2021/11/22 06:17:06;;;;;;;;;;;;;;;2.33;100.00;102420.25;5049981;28;19935;-49
2021/11/22 06:19:33;;;;;;;;;;;;;;;2.33;100.00;102423.72;5049856;28;19925;-49
2021/11/22 06:22:00;;;;;;;;;;;;;;;2.39;100.00;102419.34;5050337;28;20014;-52
2021/11/22 06:24:26;;;;;;;;;;;;;;;2.33;100.00;102425.44;5064711;28;19928;-52
2021/11/22 06:26:55;;;;;;;;;;;;;;;2.26;100.00;102428.97;5050156;28;19936;-49
2021/11/22 06:29:23;;;;;;;;;;;;;;;2.23;100.00;102431.56;5051628;28;20582;-53
2021/11/22 06:31:49;;;;;;;;;;;;;;;2.20;100.00;102433.31;5048927;28;19955;-47
2021/11/22 06:34:16;;;;;;;;;;;;;;;2.19;100.00;102433.31;5050082;28;19932;-50
2021/11/22 06:36:43;;;;;;;;;;;;;;;2.12;100.00;102435.06;5049708;28;19929;-47
2021/11/22 06:39:09;;;;;;;;;;;;;;;2.10;100.00;102444.63;5048999;28;19929;-51
2021/11/22 06:41:36;;;;;;;;;;;;;;;2.05;100.00;102448.09;5050376;28;19987;-55
2021/11/22 06:44:03;;;;;;;;;;;;;;;2.03;100.00;102448.06;5048402;28;19936;-53
2021/11/22 06:46:29;;;;;;;;;;;;;;;2.02;100.00;102451.56;5051601;28;19929;-52
2021/11/22 06:48:56;;;;;;;;;;;;;;;2.10;100.00;102460.19;5067903;28;19936;-55
2021/11/22 06:51:23;;;;;;;;;;;;;;;2.04;100.00;102465.38;5048832;28;20299;-51
2021/11/22 06:53:49;;;;;;;;;;;;;;;1.99;100.00;102474.91;5049260;28;19932;-52
2021/11/22 06:56:16;;;;;;;;;;;;;;;1.96;100.00;102473.19;5050367;28;19925;-52
2021/11/22 06:58:43;;;;;;;;;;;;;;;1.97;100.00;102480.13;5052259;28;19924;-55
2021/11/22 07:01:09;;;;;;;;;;;;;;;1.97;100.00;102487.03;5049337;28;20001;-54
2021/11/22 07:03:36;;;;;;;;;;;;;;;1.93;100.00;102496.56;5049295;28;19935;-54
2021/11/22 07:06:07;;;;;;;;;;;;;;;1.90;100.00;102501.75;5050121;28;19929;-52
2021/11/22 07:08:34;;;;;;;;;;;;;;;1.90;100.00;102504.38;5063582;28;19940;-52
2021/11/22 07:11:00;;;;;;;;;;;;;;;1.90;100.00;102509.56;5049658;28;19972;-50
2021/11/22 07:13:27;;;;;;;;;;;;;;;1.95;100.00;102522.50;5051874;28;20264;-47
2021/11/22 07:15:54;;;;;;;;;;;;;;;1.92;100.00;102527.72;5054873;28;20300;-50
2021/11/22 07:18:21;;;;;;;;;;;;;;;1.91;100.00;102533.75;5055460;28;19944;-49
2021/11/22 07:20:48;;;;;;;;;;;;;;;1.94;100.00;102536.38;5053009;28;19928;-52
2021/11/22 07:23:15;;;;;;;;;;;;;;;1.91;100.00;102549.31;5053440;28;19932;-51
2021/11/22 07:25:42;;;;;;;;;;;;;;;1.90;100.00;102540.69;5068073;28;19932;-53
2021/11/22 07:28:08;;;;;;;;;;;;;;;1.97;100.00;102557.13;5070314;28;19932;-52
2021/11/22 07:30:36;;;;;;;;;;;;;;;1.97;100.00;102557.13;5054475;28;19973;-49
2021/11/22 07:33:03;;;;;;;;;;;;;;;2.03;100.00;102568.34;5071287;28;20024;-53
2021/11/22 07:35:30;;;;;;;;;;;;;;;2.11;100.00;102557.09;5056002;28;19939;-55
2021/11/22 07:37:57;;;;;;;;;;;;;;;2.19;100.00;102557.94;5069532;28;20399;-55
2021/11/22 07:40:24;;;;;;;;;;;;;;;2.40;100.00;102561.31;5067784;28;20396;-52
2021/11/22 07:42:51;;;;;;;;;;;;;;;2.35;100.00;102575.19;5052793;28;20326;-49
2021/11/22 07:45:19;;;;;;;;;;;;;;;2.46;100.00;102572.56;5066271;28;20023;-47
2021/11/22 07:47:46;;;;;;;;;;;;;;;2.62;100.00;102577.69;5055591;28;19925;-51
2021/11/22 07:50:12;;;;;;;;;;;;;;;2.62;100.00;102577.69;5055429;28;20336;-47
2021/11/22 07:52:39;;;;;;;;;;;;;;;2.75;100.00;102596.69;5055599;28;19951;-48
2021/11/22 07:55:06;;;;;;;;;;;;;;;2.78;100.00;102594.97;5052792;28;19929;-49
2021/11/22 07:57:32;;;;;;;;;;;;;;;2.91;100.00;102595.75;5052554;28;20453;-51
2021/11/22 07:59:59;;;;;;;;;;;;;;;3.19;100.00;102596.47;5051391;28;19929;-49
2021/11/22 08:02:26;;;;;;;;;;;;;;;3.37;100.00;102597.22;5067575;28;20447;-53
2021/11/22 08:04:53;;;;;;;;;;;;;;;3.72;100.00;102603.88;5052473;28;19929;-47
2021/11/22 08:07:21;;;;;;;;;;;;;;;3.65;99.60;102615.22;5053887;28;20287;-48
2021/11/22 08:10:03;;;;;;;;;;;;;;;3.84;98.77;102615.94;5052395;28;19929;-52
2021/11/22 08:12:31;;;;;;;;;;;;;;;4.00;98.44;102614.91;5052366;28;19926;-53
2021/11/22 08:15:03;;;;;;;;;;;;;;;3.86;98.96;102615.03;5050606;28;20390;-51
2021/11/22 08:17:30;;;;;;;;;;;;;;;4.04;97.68;102613.16;5051927;28;19928;-55
2021/11/22 08:19:57;;;;;;;;;;;;;;;4.26;96.84;102615.56;5051819;28;20443;-54
2021/11/22 08:22:24;;;;;;;;;;;;;;;4.26;96.70;102616.41;5052013;28;19925;-56
2021/11/22 08:24:53;;;;;;;;;;;;;;;4.27;96.65;102614.66;5054052;28;20384;-54
2021/11/22 08:27:20;;;;;;;;;;;;;;;4.63;95.25;102622.97;5053933;28;19932;-52
2021/11/22 08:29:47;;;;;;;;;;;;;;;4.40;95.62;102621.47;5054639;28;19925;-52
2021/11/22 08:32:14;;;;;;;;;;;;;;;4.48;95.84;102630.06;5068570;28;20391;-54
2021/11/22 08:34:41;;;;;;;;;;;;;;;4.62;95.50;102621.22;5051733;28;19933;-54
2021/11/22 08:37:08;;;;;;;;;;;;;;;4.73;95.28;102633.25;5066909;28;20406;-51
2021/11/22 08:39:35;;;;;;;;;;;;;;;4.77;95.29;102634.06;5069297;28;20023;-52
2021/11/22 08:42:02;;;;;;;;;;;;;;;4.69;95.52;102634.19;5052181;28;19955;-52
2021/11/22 08:44:29;;;;;;;;;;;;;;;4.71;94.94;102636.75;5049905;28;19986;-53
2021/11/22 08:46:56;;;;;;;;;;;;;;;4.78;94.84;102638.41;5052431;28;19925;-54
2021/11/22 08:49:23;;;;;;;;;;;;;;;4.84;95.37;102648.78;5054523;28;19936;-54
2021/11/22 08:51:50;;;;;;;;;;;;;;;4.81;95.44;102646.19;5067427;28;19924;-55
2021/11/22 08:54:16;;;;;;;;;;;;;;;4.89;95.87;102654.78;5050997;28;19928;-52
2021/11/22 08:56:43;;;;;;;;;;;;;;;4.91;95.28;102660.00;5051407;28;19931;-47
2021/11/22 08:59:10;;;;;;;;;;;;;;;5.10;94.93;102663.22;5052742;28;20391;-47
2021/11/22 09:01:37;;;;;;;;;;;;;;;5.20;92.79;102664.81;5069578;28;19959;-49
2021/11/22 09:04:04;;;;;;;;;;;;;;;5.25;93.73;102669.97;5053972;28;19931;-49
2021/11/22 09:06:33;;;;;;;;;;;;;;;5.38;93.07;102676.72;5053706;28;20353;-53
2021/11/22 09:08:59;;;;;;;;;;;;;;;5.53;92.62;102675.66;5051001;28;20345;-49
2021/11/22 09:11:26;;;;;;;;;;;;;;;5.75;91.79;102680.56;5066100;28;19929;-50
2021/11/22 09:13:53;;;;;;;;;;;;;;;5.88;91.60;102681.22;5050515;28;20760;-54
2021/11/22 09:16:26;;;;;;;;;;;;;;;6.20;89.60;102690.31;5051996;28;19954;-53
2021/11/22 09:18:57;;;;;;;;;;;;;;;6.06;89.74;102695.78;5053669;28;19928;-48
2021/11/22 09:21:24;;;;;;;;;;;;;;;6.50;89.47;102691.50;5066586;28;20402;-50
2021/11/22 09:23:53;;;;;;;;;;;;;;;6.62;87.20;102700.03;5051811;28;19929;-48
2021/11/22 09:26:20;;;;;;;;;;;;;;;6.76;87.34;102703.22;5052390;28;19924;-50
2021/11/22 09:28:47;;;;;;;;;;;;;;;6.99;86.75;102704.53;5049503;28;19932;-48
2021/11/22 09:31:13;;;;;;;;;;;;;;;6.80;86.49;102699.66;5052870;28;19925;-53
2021/11/22 09:33:40;;;;;;;;;;;;;;;7.17;84.98;102700.66;5050768;28;19932;-53
2021/11/22 09:36:07;;;;;;;;;;;;;;;7.24;84.61;102700.50;5050560;28;19986;-49
2021/11/22 09:38:33;;;;;;;;;;;;;;;7.20;84.92;102698.84;5053199;28;19971;-48
2021/11/22 09:41:00;;;;;;;;;;;;;;;7.74;85.56;102700.28;5052426;28;19925;-49
2021/11/22 09:43:29;;;;;;;;;;;;;;;7.64;83.98;102708.38;5049193;28;19948;-56
2021/11/22 09:45:56;;;;;;;;;;;;;;;8.13;82.06;102709.81;5051896;28;19932;-56
2021/11/22 09:48:23;;;;;;;;;;;;;;;7.99;82.71;102714.50;5053049;28;19932;-52
2021/11/22 09:50:50;;;;;;;;;;;;;;;7.98;80.74;102723.28;5052282;28;20540;-51
2021/11/22 09:53:16;;;;;;;;;;;;;;;8.16;81.30;102717.59;5050166;28;19925;-52
2021/11/22 09:55:43;;;;;;;;;;;;;;;8.09;80.24;102721.25;5050501;28;20288;-50
2021/11/22 09:58:11;;;;;;;;;;;;;;;8.91;78.83;102709.50;5050532;28;19924;-50
2021/11/22 10:00:42;;;;;;;;;;;;;;;9.28;75.85;102716.31;5048080;28;19929;-53
2021/11/22 10:03:10;;;;;;;;;;;;;;;9.48;76.20;102720.09;5049400;28;19931;-53
2021/11/22 10:05:38;;;;;;;;;;;;;;;8.95;75.41;102713.75;5065133;28;20396;-55
2021/11/22 10:08:07;;;;;;;;;;;;;;;8.83;76.97;102714.09;5050522;28;20335;-55
2021/11/22 10:10:47;;;;;;;;;;;;;;;8.39;77.40;102713.53;5048984;28;19936;-53
2021/11/22 10:13:20;;;;;;;;;;;;;;;8.75;77.44;102716.06;5052652;28;19924;-56
2021/11/22 10:15:47;;;;;;;;;;;;;;;8.55;78.17;102717.50;5052964;28;19982;-56
2021/11/22 10:18:21;;;;;;;;;;;;;;;8.75;76.04;102716.06;5066914;28;19925;-56
2021/11/22 10:20:48;;;;;;;;;;;;;;;8.54;77.35;102707.03;5050078;28;19924;-56
2021/11/22 10:23:19;;;;;;;;;;;;;;;8.14;77.10;102719.41;5048848;28;19925;-52
2021/11/22 10:25:46;;;;;;;;;;;;;;;8.10;78.60;102728.25;5048673;28;20383;-52
2021/11/22 10:28:14;;;;;;;;;;;;;;;8.02;79.36;102717.94;5050194;28;19947;-53
2021/11/22 10:30:51;;;;;;;;;;;;;;;7.93;79.38;102720.78;5046156;28;19974;-53
2021/11/22 10:33:19;;;;;;;;;;;;;;;7.70;79.76;102719.56;5050114;28;20303;-52
2021/11/22 10:35:46;;;;;;;;;;;;;;;7.83;79.27;102714.91;5049455;28;19985;-52
2021/11/22 10:38:20;;;;;;;;;;;;;;;7.87;79.27;102713.91;5052377;28;20050;-52
2021/11/22 10:40:50;;;;;;;;;;;;;;;7.85;78.72;102718.31;5049038;28;19925;-50
2021/11/22 10:43:17;;;;;;;;;;;;;;;7.78;78.90;102722.00;5051047;28;19932;-50
2021/11/22 10:45:45;;;;;;;;;;;;;;;7.54;79.51;102724.28;5049786;28;19928;-53
2021/11/22 10:48:17;;;;;;;;;;;;;;;7.56;80.16;102727.72;5049926;28;19975;-57
2021/11/22 10:50:49;;;;;;;;;;;;;;;7.30;81.30;102730.06;5055899;28;20028;-57
2021/11/22 10:53:30;;;;;;;;;;;;;;;7.42;80.91;102735.03;5055950;28;19925;-53
2021/11/22 10:55:57;;;;;;;;;;;;;;;7.39;80.84;102735.06;5053270;28;19932;-55
2021/11/22 10:58:31;;;;;;;;;;;;;;;7.32;80.41;102725.66;5069281;28;19925;-57
2021/11/22 11:00:58;;;;;;;;;;;;;;;7.28;81.17;102730.94;5052161;28;20304;-53
2021/11/22 11:03:28;;;;;;;;;;;;;;;7.05;82.02;102733.19;5055148;28;19932;-55
2021/11/22 11:05:58;;;;;;;;;;;;;;;7.20;81.55;102739.84;5055365;28;19925;-56
2021/11/22 11:08:28;;;;;;;;;;;;;;;7.18;81.19;102733.78;5053036;28;19955;-56
2021/11/22 11:11:11;;;;;;;;;;;;;;;7.10;80.41;102734.81;5053058;28;19925;-55
2021/11/22 11:13:44;;;;;;;;;;;;;;;7.07;81.39;102736.63;5052666;28;19931;-56
2021/11/22 11:16:12;;;;;;;;;;;;;;;6.90;79.76;102732.59;5054482;28;19929;-54
2021/11/22 11:18:39;;;;;;;;;;;;;;;6.89;80.86;102735.25;5053493;28;19932;-54
2021/11/22 11:21:05;;;;;;;;;;;;;;;6.85;81.80;102744.91;5068289;28;19924;-50
2021/11/22 11:23:32;;;;;;;;;;;;;;;6.94;80.03;102739.50;5052966;28;19952;-53
2021/11/22 11:25:59;;;;;;;;;;;;;;;6.88;79.95;102739.59;5054487;28;19925;-49
2021/11/22 11:28:27;;;;;;;;;;;;;;;6.70;80.46;102750.41;5054951;28;19936;-50
2021/11/22 11:30:53;;;;;;;;;;;;;;;6.77;80.09;102741.56;5066436;28;19956;-55
2021/11/22 11:33:20;;;;;;;;;;;;;;;6.82;80.39;102752.81;5052922;28;19925;-51
2021/11/22 11:35:56;;;;;;;;;;;;;;;6.76;79.29;102745.94;5067596;28;19971;-49
2021/11/22 11:38:43;;;;;;;;;;;;;;;6.67;78.59;102755.72;5051387;28;19928;-48
2021/11/22 11:41:21;;;;;;;;;;;;;;;6.71;79.05;102755.63;5051107;28;20330;-56
2021/11/22 11:44:01;;;;;;;;;;;;;;;6.66;79.92;102754.84;5050311;28;19932;-55
2021/11/22 11:46:51;;;;;;;;;;;;;;;6.50;80.75;102754.25;5063979;28;19931;-55
2021/11/22 11:49:18;;;;;;;;;;;;;;;6.60;79.06;102749.72;5053566;28;19925;-57
2021/11/22 11:51:47;;;;;;;;;;;;;;;6.46;79.61;102760.41;5055357;28;19925;-56
2021/11/22 11:54:23;;;;;;;;;;;;;;;6.39;78.70;102757.06;5052677;28;20392;-54
2021/11/22 11:56:53;;;;;;;;;;;;;;;6.42;79.32;102754.38;5051203;28;20268;-54
2021/11/22 11:59:22;;;;;;;;;;;;;;;6.44;79.30;102754.34;5051523;28;19925;-56
2021/11/22 12:01:54;;;;;;;;;;;;;;;6.45;79.54;102755.22;5051429;28;19925;-54
2021/11/22 12:04:21;;;;;;;;;;;;;;;6.39;81.24;102749.22;5052890;28;19925;-57
2021/11/22 12:06:54;;;;;;;;;;;;;;;6.35;81.49;102749.28;5053165;28;20307;-53
2021/11/22 12:09:40;;;;;;;;;;;;;;;6.39;79.59;102746.59;5055035;28;20356;-56
2021/11/22 12:12:07;;;;;;;;;;;;;;;6.45;79.28;102756.09;5070504;28;19925;-54
2021/11/22 12:14:52;;;;;;;;;;;;;;;6.42;80.46;102756.13;5055047;28;20285;-52
2021/11/22 12:17:36;;;;;;;;;;;;;;;6.32;81.17;102754.56;5052840;28;20395;-49
2021/11/22 12:20:09;;;;;;;;;;;;;;;6.32;79.91;102754.56;5052000;28;19929;-55
2021/11/22 12:22:37;;;;;;;;;;;;;;;6.41;81.11;102759.66;5054057;28;19994;-54
2021/11/22 12:25:05;;;;;;;;;;;;;;;6.42;79.78;102758.75;5066805;28;19959;-51
2021/11/22 12:27:33;;;;;;;;;;;;;;;6.53;79.06;102756.81;5051365;28;19925;-52
2021/11/22 12:30:02;;;;;;;;;;;;;;;6.56;79.07;102758.53;5049235;28;19928;-52
2021/11/22 12:32:33;;;;;;;;;;;;;;;6.63;79.04;102759.28;5051426;28;20383;-50
2021/11/22 12:35:14;;;;;;;;;;;;;;;6.60;78.99;102752.34;5054489;28;20414;-53
2021/11/22 12:37:41;;;;;;;;;;;;;;;6.63;78.69;102767.13;5051178;28;20330;-51
2021/11/22 12:40:08;;;;;;;;;;;;;;;6.75;78.02;102764.28;5051449;28;19925;-53
2021/11/22 12:42:52;;;;;;;;;;;;;;;6.76;79.76;102766.88;5049977;28;19979;-52
2021/11/22 12:45:19;;;;;;;;;;;;;;;6.77;79.02;102762.47;5053700;28;19991;-51